createdAt,value
2022-10-03T00:01:48.808Z,3.84
2022-10-03T00:03:49.830Z,3.84
2022-10-03T00:05:51.770Z,3.83
2022-10-03T00:09:53.861Z,3.83
2022-10-03T00:11:55.055Z,3.83
2022-10-03T00:15:58.022Z,3.84
2022-10-03T00:17:59.729Z,3.83
2022-10-03T00:20:01.513Z,3.83
2022-10-03T00:22:02.681Z,3.83
2022-10-03T00:26:05.823Z,3.84
2022-10-03T00:28:07.114Z,3.84
2022-10-03T00:30:08.741Z,3.83
2022-10-03T00:32:10.596Z,3.84
2022-10-03T00:36:13.657Z,3.83
2022-10-03T00:38:15.175Z,3.83
2022-10-03T00:40:16.249Z,3.83
2022-10-03T00:42:17.929Z,3.83
2022-10-03T00:44:19.602Z,3.83
2022-10-03T00:46:21.534Z,3.83
2022-10-03T00:48:23.100Z,3.83
2022-10-03T00:52:25.900Z,3.83
2022-10-03T00:54:27.707Z,3.83
2022-10-03T00:58:31.107Z,3.83
2022-10-03T01:00:33.053Z,3.83
2022-10-03T01:02:34.820Z,3.83
2022-10-03T01:04:36.588Z,3.83
2022-10-03T01:08:39.545Z,3.82
2022-10-03T01:10:40.491Z,3.83
2022-10-03T01:12:42.260Z,3.83
2022-10-03T01:14:43.603Z,3.82
2022-10-03T01:18:46.918Z,3.83
2022-10-03T01:20:48.784Z,3.83
2022-10-03T01:22:50.674Z,3.83
2022-10-03T01:24:51.953Z,3.82
2022-10-03T01:26:53.460Z,3.83
2022-10-03T01:28:54.704Z,3.82
2022-10-03T01:30:55.675Z,3.82
2022-10-03T01:34:58.103Z,3.82
2022-10-03T01:36:59.282Z,3.82
2022-10-03T01:39:00.466Z,3.82
2022-10-03T01:41:01.470Z,3.82
2022-10-03T01:43:02.472Z,3.82
2022-10-03T01:45:04.365Z,3.82
2022-10-03T01:47:05.592Z,3.82
2022-10-03T01:51:08.368Z,3.82
2022-10-03T01:53:17.802Z,3.82
2022-10-03T01:55:10.927Z,3.82
2022-10-03T01:57:12.516Z,3.82
2022-10-03T01:59:13.809Z,3.82
2022-10-03T02:01:15.104Z,3.82
2022-10-03T02:03:16.983Z,3.82
2022-10-03T02:07:19.264Z,3.82
2022-10-03T02:09:20.900Z,3.82
2022-10-03T02:11:22.293Z,3.82
2022-10-03T02:13:23.467Z,3.82
2022-10-03T02:17:26.163Z,3.82
2022-10-03T02:19:27.184Z,3.82
2022-10-03T02:23:29.867Z,3.82
2022-10-03T02:25:31.625Z,3.82
2022-10-03T02:27:33.042Z,3.82
2022-10-03T02:29:34.600Z,3.82
2022-10-03T02:33:38.001Z,3.82
2022-10-03T02:35:39.852Z,3.82
2022-10-03T02:37:41.271Z,3.82
2022-10-03T02:39:42.682Z,3.82
2022-10-03T02:41:43.791Z,3.82
2022-10-03T02:43:45.635Z,3.82
2022-10-03T02:45:46.674Z,3.82
2022-10-03T02:49:50.016Z,3.82
2022-10-03T02:51:51.153Z,3.82
2022-10-03T02:53:52.150Z,3.82
2022-10-03T02:55:53.371Z,3.81
2022-10-03T02:59:56.154Z,3.81
2022-10-03T03:00:40.062Z,3.81
2022-10-03T03:02:41.276Z,3.81
2022-10-03T03:04:42.277Z,3.81
2022-10-03T03:06:43.436Z,3.81
2022-10-03T03:10:46.563Z,3.82
2022-10-03T03:12:48.201Z,3.81
2022-10-03T03:16:51.077Z,3.81
2022-10-03T03:18:53.002Z,3.81
2022-10-03T03:20:54.063Z,3.81
2022-10-03T03:22:55.086Z,3.81
2022-10-03T03:26:57.712Z,3.81
2022-10-03T03:28:59.313Z,3.81
2022-10-03T03:31:00.345Z,3.81
2022-10-03T03:33:01.824Z,3.81
2022-10-03T03:35:03.121Z,3.81
2022-10-03T03:37:04.641Z,3.81
2022-10-03T03:39:06.379Z,3.81
2022-10-03T03:43:09.225Z,3.81
2022-10-03T03:45:11.113Z,3.81
2022-10-03T03:47:12.670Z,3.81
2022-10-03T03:49:13.856Z,3.81
2022-10-03T03:53:16.932Z,3.8
2022-10-03T03:55:18.539Z,3.8
2022-10-03T03:57:19.876Z,3.81
2022-10-03T03:59:20.914Z,3.8
2022-10-03T04:01:21.925Z,3.81
2022-10-03T04:03:23.262Z,3.8
2022-10-03T04:05:24.354Z,3.81
2022-10-03T04:09:27.120Z,3.81
2022-10-03T04:11:28.743Z,3.8
2022-10-03T04:13:29.888Z,3.8
2022-10-03T04:15:31.658Z,3.81
2022-10-03T04:17:32.889Z,3.8
2022-10-03T04:19:33.985Z,3.8
2022-10-03T04:21:35.657Z,3.8
2022-10-03T04:25:38.536Z,3.81
2022-10-03T04:27:39.595Z,3.8
2022-10-03T04:29:40.879Z,3.8
2022-10-03T04:31:42.380Z,3.8
2022-10-03T04:35:45.099Z,3.8
2022-10-03T04:37:46.070Z,3.8
2022-10-03T04:39:47.992Z,3.8
2022-10-03T04:41:49.268Z,3.8
2022-10-03T04:43:50.244Z,3.8
2022-10-03T04:45:51.680Z,3.8
2022-10-03T04:47:53.558Z,3.8
2022-10-03T04:51:56.037Z,3.8
2022-10-03T04:53:57.654Z,3.8
2022-10-03T04:58:04.165Z,3.8
2022-10-03T05:00:01.432Z,3.8
2022-10-03T05:02:03.081Z,3.8
2022-10-03T05:04:04.214Z,3.8
2022-10-03T05:08:07.091Z,3.8
2022-10-03T05:10:12.814Z,3.8
2022-10-03T05:12:09.935Z,3.8
2022-10-03T05:14:11.519Z,3.8
2022-10-03T05:16:12.666Z,3.8
2022-10-03T05:18:13.710Z,3.8
2022-10-03T05:20:15.186Z,3.8
2022-10-03T05:24:18.253Z,3.8
2022-10-03T05:26:43.385Z,3.79
2022-10-03T05:28:21.809Z,3.8
2022-10-03T05:30:22.777Z,3.8
2022-10-03T05:34:25.619Z,3.8
2022-10-03T05:36:27.264Z,3.79
2022-10-03T05:38:28.993Z,3.8
2022-10-03T05:40:30.111Z,3.79
2022-10-03T05:42:31.555Z,3.8
2022-10-03T05:44:33.379Z,3.8
2022-10-03T05:46:34.692Z,3.79
2022-10-03T05:50:38.136Z,3.79
2022-10-03T05:52:39.138Z,3.79
2022-10-03T05:54:40.402Z,3.79
2022-10-03T05:56:41.892Z,3.79
2022-10-03T05:58:43.777Z,3.79
2022-10-03T06:00:45.652Z,3.79
2022-10-03T06:02:46.921Z,3.79
2022-10-03T06:06:49.226Z,3.79
2022-10-03T06:08:50.794Z,3.79
2022-10-03T06:10:52.211Z,3.79
2022-10-03T06:12:53.641Z,3.79
2022-10-03T06:16:56.520Z,3.79
2022-10-03T06:18:58.017Z,3.79
2022-10-03T06:23:03.662Z,3.8
2022-10-03T06:25:02.120Z,3.8
2022-10-03T06:27:03.340Z,3.8
2022-10-03T06:29:05.152Z,3.8
2022-10-03T06:33:08.061Z,3.8
2022-10-03T06:35:09.326Z,3.81
2022-10-03T06:37:11.128Z,3.81
2022-10-03T06:39:12.876Z,3.81
2022-10-03T06:41:14.054Z,3.82
2022-10-03T06:43:15.482Z,3.81
2022-10-03T06:45:17.310Z,3.81
2022-10-03T06:49:20.669Z,3.81
2022-10-03T06:51:21.867Z,3.82
2022-10-03T06:53:23.782Z,3.81
2022-10-03T06:55:25.374Z,3.82
2022-10-03T06:59:28.154Z,3.82
2022-10-03T07:01:29.914Z,3.82
2022-10-03T07:03:30.949Z,3.82
2022-10-03T07:05:32.485Z,3.82
2022-10-03T07:07:33.652Z,3.83
2022-10-03T07:09:34.768Z,3.84
2022-10-03T07:11:36.029Z,3.83
2022-10-03T07:17:39.337Z,3.84
2022-10-03T07:21:42.701Z,3.86
2022-10-03T07:23:44.053Z,3.87
2022-10-03T07:25:45.035Z,3.87
2022-10-03T07:27:50.210Z,3.88
2022-10-03T07:31:49.489Z,3.88
2022-10-03T07:33:50.951Z,3.88
2022-10-03T07:35:52.577Z,3.88
2022-10-03T07:37:53.753Z,3.89
2022-10-03T07:48:00.652Z,3.9
2022-10-03T07:50:01.692Z,3.9
2022-10-03T07:54:04.405Z,3.91
2022-10-03T07:58:07.592Z,3.92
2022-10-03T08:00:08.810Z,3.92
2022-10-03T08:02:10.502Z,3.91
2022-10-03T08:04:11.887Z,3.92
2022-10-03T08:06:13.698Z,3.92
2022-10-03T08:08:15.462Z,3.92
2022-10-03T08:10:16.765Z,3.93
2022-10-03T08:12:18.451Z,3.93
2022-10-03T08:14:19.253Z,3.94
2022-10-03T08:18:21.411Z,3.94
2022-10-03T08:20:22.830Z,3.94
2022-10-03T08:22:24.326Z,3.95
2022-10-03T08:24:25.527Z,3.95
2022-10-03T08:26:26.815Z,3.95
2022-10-03T08:28:28.415Z,3.96
2022-10-03T08:30:29.498Z,3.96
2022-10-03T08:32:30.648Z,3.96
2022-10-03T08:34:32.059Z,3.96
2022-10-03T08:36:33.382Z,3.97
2022-10-03T08:38:35.046Z,3.97
2022-10-03T08:40:36.796Z,3.97
2022-10-03T08:42:38.284Z,3.98
2022-10-03T08:44:39.253Z,3.98
2022-10-03T08:46:40.871Z,3.98
2022-10-03T08:48:42.381Z,3.99
2022-10-03T08:50:43.409Z,3.99
2022-10-03T08:52:45.139Z,4
2022-10-03T08:56:48.250Z,4
2022-10-03T08:58:49.119Z,4
2022-10-03T09:00:49.903Z,4
2022-10-03T09:03:13.911Z,4.01
2022-10-03T09:04:53.264Z,4.01
2022-10-03T09:08:56.130Z,4.02
2022-10-03T09:12:58.946Z,4.02
2022-10-03T09:14:59.907Z,4.03
2022-10-03T09:17:01.305Z,4.03
2022-10-03T09:19:02.755Z,4.03
2022-10-03T09:21:04.208Z,4.04
2022-10-03T09:23:05.094Z,4.04
2022-10-03T09:25:06.327Z,4.04
2022-10-03T09:27:07.823Z,4.05
2022-10-03T09:29:09.290Z,4.05
2022-10-03T09:33:11.929Z,4.06
2022-10-03T09:35:13.408Z,4.06
2022-10-03T09:39:15.969Z,4.07
2022-10-03T09:41:17.691Z,4.07
2022-10-03T09:45:19.319Z,4.08
2022-10-03T09:46:02.990Z,4.08
2022-10-03T09:48:03.814Z,4.08
2022-10-03T09:50:05.215Z,4.08
2022-10-03T09:52:08.881Z,4.08
2022-10-03T09:54:07.748Z,4.09
2022-10-03T09:56:08.688Z,4.09
2022-10-03T09:58:10.330Z,4.1
2022-10-03T10:00:11.470Z,4.1
2022-10-03T10:02:12.367Z,4.1
2022-10-03T10:04:14.373Z,4.1
2022-10-03T10:06:15.905Z,4.1
2022-10-03T10:08:16.771Z,4.11
2022-10-03T10:10:18.448Z,4.12
2022-10-03T10:12:19.796Z,4.12
2022-10-03T10:14:21.121Z,4.12
2022-10-03T10:18:22.958Z,4.12
2022-10-03T10:22:24.946Z,4.13
2022-10-03T10:24:26.695Z,4.14
2022-10-03T10:26:29.496Z,4.13
2022-10-03T10:28:29.809Z,4.14
2022-10-03T10:30:31.310Z,4.14
2022-10-03T10:32:32.951Z,4.14
2022-10-03T10:34:34.434Z,4.15
2022-10-03T10:36:35.816Z,4.15
2022-10-03T10:38:37.039Z,4.16
2022-10-03T10:40:38.092Z,4.16
2022-10-03T10:42:39.069Z,4.16
2022-10-03T10:44:40.431Z,4.16
2022-10-03T10:46:42.318Z,4.15
2022-10-03T10:48:42.856Z,4.14
2022-10-03T10:50:44.169Z,4.15
2022-10-03T10:52:45.742Z,4.15
2022-10-03T10:54:47.199Z,4.15
2022-10-03T10:56:48.080Z,4.17
2022-10-03T11:00:49.998Z,4.17
2022-10-03T11:02:51.542Z,4.17
2022-10-03T11:04:52.573Z,4.18
2022-10-03T11:06:53.629Z,4.18
2022-10-03T11:08:54.467Z,4.19
2022-10-03T11:10:55.746Z,4.19
2022-10-03T11:14:58.745Z,4.19
2022-10-03T11:16:59.855Z,4.19
2022-10-03T11:19:01.096Z,4.19
2022-10-03T11:21:02.876Z,4.19
2022-10-03T11:23:04.912Z,4.19
2022-10-03T11:25:05.682Z,4.19
2022-10-03T11:27:07.452Z,4.19
2022-10-03T11:31:10.080Z,4.19
2022-10-03T11:33:11.810Z,4.2
2022-10-03T11:35:13.046Z,4.19
2022-10-03T11:37:14.699Z,4.19
2022-10-03T11:39:16.458Z,4.19
2022-10-03T11:41:17.851Z,4.2
2022-10-03T11:43:18.745Z,4.2
2022-10-03T11:47:21.243Z,4.2
2022-10-03T11:49:22.965Z,4.2
2022-10-03T11:51:24.217Z,4.2
2022-10-03T11:53:25.452Z,4.2
2022-10-03T11:55:26.474Z,4.2
2022-10-03T11:57:27.739Z,4.2
2022-10-03T11:59:29.293Z,4.2
2022-10-03T12:01:31.013Z,4.2
2022-10-03T12:03:32.209Z,4.2
2022-10-03T12:05:33.754Z,4.2
2022-10-03T12:07:35.069Z,4.2
2022-10-03T12:09:36.779Z,4.2
2022-10-03T12:13:39.748Z,4.2
2022-10-03T12:15:40.954Z,4.2
2022-10-03T12:17:42.028Z,4.2
2022-10-03T12:19:43.774Z,4.2
2022-10-03T12:21:45.094Z,4.21
2022-10-03T12:23:46.660Z,4.2
2022-10-03T12:25:47.617Z,4.19
2022-10-03T12:29:49.885Z,4.19
2022-10-03T12:31:51.032Z,4.19
2022-10-03T12:35:54.074Z,4.19
2022-10-03T12:37:55.412Z,4.18
2022-10-03T12:39:56.429Z,4.19
2022-10-03T12:41:57.308Z,4.18
2022-10-03T12:43:58.522Z,4.19
2022-10-03T12:46:00.219Z,4.18
2022-10-03T12:48:01.686Z,4.18
2022-10-03T12:50:02.883Z,4.19
2022-10-03T12:52:03.872Z,4.19
2022-10-03T12:56:06.294Z,4.19
2022-10-03T12:58:07.580Z,4.19
2022-10-03T13:00:08.458Z,4.18
2022-10-03T13:02:09.685Z,4.18
2022-10-03T13:06:12.068Z,4.18
2022-10-03T13:08:13.050Z,4.18
2022-10-03T13:10:14.348Z,4.18
2022-10-03T13:14:17.782Z,4.18
2022-10-03T13:16:19.382Z,4.18
2022-10-03T13:18:20.315Z,4.17
2022-10-03T13:20:21.597Z,4.17
2022-10-03T13:22:23.100Z,4.17
2022-10-03T13:24:24.324Z,4.17
2022-10-03T13:28:27.694Z,4.18
2022-10-03T13:30:28.544Z,4.17
2022-10-03T13:32:30.358Z,4.17
2022-10-03T13:34:31.642Z,4.17
2022-10-03T13:38:34.450Z,4.17
2022-10-03T13:40:36.085Z,4.18
2022-10-03T13:42:37.062Z,4.17
2022-10-03T13:44:38.258Z,4.17
2022-10-03T13:46:39.902Z,4.17
2022-10-03T13:48:41.496Z,4.17
2022-10-03T13:50:43.070Z,4.17
2022-10-03T13:54:44.988Z,4.17
2022-10-03T13:56:46.271Z,4.17
2022-10-03T13:58:47.386Z,4.17
2022-10-03T14:00:48.691Z,4.17
2022-10-03T14:02:50.628Z,4.17
2022-10-03T14:06:52.426Z,4.17
2022-10-03T14:08:53.729Z,4.17
2022-10-03T14:10:54.916Z,4.17
2022-10-03T14:12:56.585Z,4.17
2022-10-03T14:14:57.483Z,4.17
2022-10-03T14:16:59.088Z,4.16
2022-10-03T14:21:01.559Z,4.17
2022-10-03T14:23:02.556Z,4.17
2022-10-03T14:25:04.294Z,4.16
2022-10-03T14:27:05.498Z,4.17
2022-10-03T14:29:07.048Z,4.16
2022-10-03T14:31:08.851Z,4.17
2022-10-03T14:33:10.357Z,4.17
2022-10-03T14:37:12.481Z,4.16
2022-10-03T14:39:13.803Z,4.16
2022-10-03T14:41:15.168Z,4.17
2022-10-03T14:43:16.863Z,4.16
2022-10-03T14:45:18.089Z,4.16
2022-10-03T14:47:19.674Z,4.16
2022-10-03T14:49:47.342Z,4.16
2022-10-03T14:53:23.651Z,4.16
2022-10-03T14:55:29.174Z,4.16
2022-10-03T14:57:25.891Z,4.16
2022-10-03T14:59:27.467Z,4.16
2022-10-03T15:03:29.389Z,4.16
2022-10-03T15:05:30.303Z,4.16
2022-10-03T15:09:33.119Z,4.16
2022-10-03T15:11:34.018Z,4.16
2022-10-03T15:13:35.647Z,4.16
2022-10-03T15:15:36.969Z,4.16
2022-10-03T15:19:39.853Z,4.16
2022-10-03T15:21:41.105Z,4.16
2022-10-03T15:23:42.285Z,4.16
2022-10-03T15:25:43.625Z,4.15
2022-10-03T15:27:44.581Z,4.16
2022-10-03T15:29:45.571Z,4.16
2022-10-03T15:31:46.967Z,4.16
2022-10-03T15:35:49.951Z,4.16
2022-10-03T15:37:50.884Z,4.16
2022-10-03T15:39:52.434Z,4.15
2022-10-03T15:41:54.245Z,4.15
2022-10-03T15:43:55.195Z,4.16
2022-10-03T15:47:58.475Z,4.15
2022-10-03T15:52:01.178Z,4.15
2022-10-03T15:54:02.441Z,4.15
2022-10-03T15:56:03.854Z,4.15
2022-10-03T15:58:05.566Z,4.15
2022-10-03T16:02:09.050Z,4.15
2022-10-03T16:04:10.373Z,4.15
2022-10-03T16:08:12.925Z,4.14
2022-10-03T16:10:14.665Z,4.15
2022-10-03T16:14:17.441Z,4.15
2022-10-03T16:18:19.992Z,4.15
2022-10-03T16:20:21.040Z,4.14
2022-10-03T16:22:22.540Z,4.14
2022-10-03T16:24:23.987Z,4.15
2022-10-03T16:26:24.848Z,4.14
2022-10-03T16:28:26.444Z,4.15
2022-10-03T16:30:27.460Z,4.14
2022-10-03T16:31:20.283Z,4.15
2022-10-03T16:33:21.350Z,4.14
2022-10-03T16:35:22.254Z,4.14
2022-10-03T16:39:25.072Z,4.14
2022-10-03T16:41:26.773Z,4.14
2022-10-03T16:43:27.836Z,4.14
2022-10-03T16:45:29.296Z,4.14
2022-10-03T16:47:30.919Z,4.14
2022-10-03T16:49:32.675Z,4.14
2022-10-03T16:51:34.227Z,4.14
2022-10-03T16:53:35.756Z,4.14
2022-10-03T16:55:36.942Z,4.14
2022-10-03T16:57:37.988Z,4.14
2022-10-03T16:59:39.161Z,4.14
2022-10-03T17:01:41.021Z,4.14
2022-10-03T17:03:41.985Z,4.14
2022-10-03T17:07:44.734Z,4.14
2022-10-03T17:11:48.376Z,4.14
2022-10-03T17:13:49.849Z,4.14
2022-10-03T17:15:50.859Z,4.14
2022-10-03T17:17:52.599Z,4.14
2022-10-03T17:19:54.106Z,4.14
2022-10-03T17:21:55.400Z,4.14
2022-10-03T17:23:56.394Z,4.14
2022-10-03T17:25:58.154Z,4.14
2022-10-03T17:27:59.202Z,4.14
2022-10-03T17:30:00.327Z,4.13
2022-10-03T17:32:01.309Z,4.13
2022-10-03T17:34:02.389Z,4.13
2022-10-03T17:36:04.339Z,4.13
2022-10-03T17:38:19.836Z,4.13
2022-10-03T17:40:07.492Z,4.13
2022-10-03T17:42:08.924Z,4.14
2022-10-03T17:44:10.624Z,4.13
2022-10-03T17:48:13.251Z,4.13
2022-10-03T17:50:14.362Z,4.13
2022-10-03T17:54:16.889Z,4.13
2022-10-03T17:56:18.406Z,4.13
2022-10-03T17:58:19.860Z,4.13
2022-10-03T18:00:21.425Z,4.13
2022-10-03T18:02:22.640Z,4.13
2022-10-03T18:06:24.919Z,4.13
2022-10-03T18:08:26.204Z,4.13
2022-10-03T18:10:27.227Z,4.13
2022-10-03T18:12:29.120Z,4.13
2022-10-03T18:16:32.407Z,4.13
2022-10-03T18:18:34.092Z,4.13
2022-10-03T18:20:35.409Z,4.12
2022-10-03T18:22:39.948Z,4.12
2022-10-03T18:26:40.040Z,4.12
2022-10-03T18:28:41.551Z,4.12
2022-10-03T18:30:43.123Z,4.12
2022-10-03T18:32:44.250Z,4.12
2022-10-03T18:34:45.668Z,4.12
2022-10-03T18:36:47.311Z,4.12
2022-10-03T18:38:49.048Z,4.12
2022-10-03T18:40:50.632Z,4.12
2022-10-03T18:42:51.821Z,4.12
2022-10-03T18:44:53.496Z,4.12
2022-10-03T18:46:54.733Z,4.12
2022-10-03T18:49:16.095Z,4.12
2022-10-03T18:50:57.886Z,4.12
2022-10-03T18:52:59.202Z,4.12
2022-10-03T18:55:01.116Z,4.12
2022-10-03T18:57:02.476Z,4.12
2022-10-03T18:59:03.598Z,4.12
2022-10-03T19:01:05.089Z,4.12
2022-10-03T19:05:07.839Z,4.12
2022-10-03T19:09:10.242Z,4.12
2022-10-03T19:11:11.535Z,4.12
2022-10-03T19:13:13.055Z,4.12
2022-10-03T19:15:14.629Z,4.12
2022-10-03T19:17:16.232Z,4.12
2022-10-03T19:21:19.576Z,4.11
2022-10-03T19:25:22.877Z,4.11
2022-10-03T19:27:23.937Z,4.12
2022-10-03T19:29:25.457Z,4.11
2022-10-03T19:31:26.824Z,4.11
2022-10-03T19:33:28.145Z,4.11
2022-10-03T19:35:30.138Z,4.12
2022-10-03T19:37:31.447Z,4.12
2022-10-03T19:39:33.348Z,4.11
2022-10-03T19:41:35.043Z,4.11
2022-10-03T19:43:36.003Z,4.11
2022-10-03T19:45:37.377Z,4.11
2022-10-03T19:47:38.962Z,4.11
2022-10-03T19:51:41.782Z,4.11
2022-10-03T19:53:43.437Z,4.11
2022-10-03T19:55:45.127Z,4.11
2022-10-03T19:57:46.767Z,4.11
2022-10-03T19:59:48.188Z,4.11
2022-10-03T20:01:49.865Z,4.11
2022-10-03T20:03:51.525Z,4.11
2022-10-03T20:07:53.735Z,4.11
2022-10-03T20:09:55.411Z,4.11
2022-10-03T20:11:56.654Z,4.11
2022-10-03T20:13:58.320Z,4.11
2022-10-03T20:18:00.680Z,4.1
2022-10-03T20:20:02.094Z,4.11
2022-10-03T20:24:05.212Z,4.1
2022-10-03T20:26:10.071Z,4.1
2022-10-03T20:28:08.534Z,4.1
2022-10-03T20:30:09.956Z,4.1
2022-10-03T20:32:11.709Z,4.1
2022-10-03T20:34:13.400Z,4.1
2022-10-03T20:36:14.387Z,4.1
2022-10-03T20:38:16.235Z,4.1
2022-10-03T20:40:17.696Z,4.1
2022-10-03T20:42:18.871Z,4.1
2022-10-03T20:44:20.471Z,4.1
2022-10-03T20:46:22.058Z,4.1
2022-10-03T20:50:24.852Z,4.1
2022-10-03T20:52:26.568Z,4.1
2022-10-03T20:54:27.664Z,4.1
2022-10-03T20:56:28.900Z,4.1
2022-10-03T20:58:30.007Z,4.1
2022-10-03T21:00:31.943Z,4.1
2022-10-03T21:02:33.675Z,4.1
2022-10-03T21:06:36.307Z,4.1
2022-10-03T21:08:37.719Z,4.1
2022-10-03T21:10:39.209Z,4.1
2022-10-03T21:12:41.128Z,4.1
2022-10-03T21:14:42.955Z,4.1
2022-10-03T21:16:44.820Z,4.09
2022-10-03T21:18:46.597Z,4.1
2022-10-03T21:22:49.565Z,4.09
2022-10-03T21:24:50.829Z,4.09
2022-10-03T21:28:54.715Z,4.1
2022-10-03T21:32:58.382Z,4.09
2022-10-03T21:35:00.315Z,4.09
2022-10-03T21:37:02.313Z,4.09
2022-10-03T21:39:03.679Z,4.09
2022-10-03T21:41:05.230Z,4.09
2022-10-03T21:43:06.693Z,4.09
2022-10-03T21:45:07.918Z,4.09
2022-10-03T21:47:09.843Z,4.09
2022-10-03T21:49:11.382Z,4.09
2022-10-03T21:51:13.231Z,4.09
2022-10-03T21:53:15.223Z,4.09
2022-10-03T21:57:17.771Z,4.09
2022-10-03T21:59:19.313Z,4.09
2022-10-03T22:01:20.763Z,4.09
2022-10-03T22:03:21.873Z,4.09
2022-10-03T22:05:23.245Z,4.09
2022-10-03T22:07:24.464Z,4.09
2022-10-03T22:09:25.797Z,4.08
2022-10-03T22:11:27.766Z,4.09
2022-10-03T22:15:30.949Z,4.08
2022-10-03T22:17:32.096Z,4.08
2022-10-03T22:19:34.068Z,4.08
2022-10-03T22:21:35.535Z,4.08
2022-10-03T22:25:37.757Z,4.08
2022-10-03T22:27:39.140Z,4.09
2022-10-03T22:29:40.415Z,4.08
2022-10-03T22:31:41.991Z,4.08
2022-10-03T22:33:43.435Z,4.08
2022-10-03T22:35:45.036Z,4.08
2022-10-03T22:37:46.967Z,4.08
2022-10-03T22:39:48.036Z,4.08
2022-10-03T22:43:51.796Z,4.08
2022-10-03T22:47:55.687Z,4.08
2022-10-03T22:49:57.100Z,4.08
2022-10-03T22:53:59.959Z,4.08
2022-10-03T22:58:02.631Z,4.08
2022-10-03T23:00:03.798Z,4.08
2022-10-03T23:02:05.673Z,4.08
2022-10-03T23:04:06.823Z,4.08
2022-10-03T23:06:07.791Z,4.08
2022-10-03T23:08:09.770Z,4.08
2022-10-03T23:10:11.698Z,4.08
2022-10-03T23:12:13.275Z,4.08
2022-10-03T23:14:15.173Z,4.08
2022-10-03T23:16:16.878Z,4.08
2022-10-03T23:19:02.450Z,4.08
2022-10-03T23:21:03.812Z,4.08
2022-10-03T23:23:05.200Z,4.08
2022-10-03T23:25:06.928Z,4.08
2022-10-03T23:27:08.330Z,4.08
2022-10-03T23:29:10.055Z,4.07
2022-10-03T23:31:11.930Z,4.08
2022-10-03T23:35:15.266Z,4.07
2022-10-03T23:37:17.010Z,4.07
2022-10-03T23:39:18.688Z,4.07
2022-10-03T23:41:19.857Z,4.07
2022-10-03T23:45:23.047Z,4.07
2022-10-03T23:47:24.084Z,4.07
2022-10-03T23:51:27.041Z,4.07
2022-10-03T23:53:28.191Z,4.07
2022-10-03T23:55:29.212Z,4.07
2022-10-03T23:57:30.692Z,4.07
